sensor_id;sensor_type;location;lat;lon;timestamp;temperature;humidity
25328;DHT22;13279;51.300;12.394;2022-07-23T03:16:27;18.10;1.00
25328;DHT22;13279;51.300;12.394;2022-07-23T03:18:55;18.10;1.00
25328;DHT22;13279;51.300;12.394;2022-07-23T03:21:23;18.10;1.70
25328;DHT22;13279;51.300;12.394;2022-07-23T03:23:52;18.10;1.00
25328;DHT22;13279;51.300;12.394;2022-07-23T03:26:19;18.10;1.00
25328;DHT22;13279;51.300;12.394;2022-07-23T03:28:52;18.00;3.50
25328;DHT22;13279;51.300;12.394;2022-07-23T03:31:19;17.90;7.30
25328;DHT22;13279;51.300;12.394;2022-07-23T03:33:48;18.00;10.10
25328;DHT22;13279;51.300;12.394;2022-07-23T03:36:16;17.90;9.20
25328;DHT22;13279;51.300;12.394;2022-07-23T03:38:45;17.90;18.40
25328;DHT22;13279;51.300;12.394;2022-07-23T03:41:12;17.80;25.30
25328;DHT22;13279;51.300;12.394;2022-07-23T03:43:40;17.80;31.10
25328;DHT22;13279;51.300;12.394;2022-07-23T03:46:07;17.80;30.60
25328;DHT22;13279;51.300;12.394;2022-07-23T03:48:36;17.70;31.60
25328;DHT22;13279;51.300;12.394;2022-07-23T03:51:05;17.70;30.80
25328;DHT22;13279;51.300;12.394;2022-07-23T03:53:33;17.70;29.50
25328;DHT22;13279;51.300;12.394;2022-07-23T03:56:01;17.70;30.40
25328;DHT22;13279;51.300;12.394;2022-07-23T03:58:29;17.70;30.90
25328;DHT22;13279;51.300;12.394;2022-07-23T04:00:57;17.70;28.10
25328;DHT22;13279;51.300;12.394;2022-07-23T04:03:25;17.70;20.70
25328;DHT22;13279;51.300;12.394;2022-07-23T04:05:52;17.70;21.80
25328;DHT22;13279;51.300;12.394;2022-07-23T04:08:22;17.70;22.70
25328;DHT22;13279;51.300;12.394;2022-07-23T04:10:52;17.80;15.60
25328;DHT22;13279;51.300;12.394;2022-07-23T04:13:22;17.80;10.30
25328;DHT22;13279;51.300;12.394;2022-07-23T04:15:49;17.70;6.10
25328;DHT22;13279;51.300;12.394;2022-07-23T04:18:17;17.70;1.00
25328;DHT22;13279;51.300;12.394;2022-07-23T04:20:57;17.70;1.00
25328;DHT22;13279;51.300;12.394;2022-07-23T04:23:27;17.80;1.00
25328;DHT22;13279;51.300;12.394;2022-07-23T04:25:55;17.80;1.00
25328;DHT22;13279;51.300;12.394;2022-07-23T04:28:22;17.80;1.00
25328;DHT22;13279;51.300;12.394;2022-07-23T04:30:50;17.70;1.00
25328;DHT22;13279;51.300;12.394;2022-07-23T04:33:18;17.80;1.00
25328;DHT22;13279;51.300;12.394;2022-07-23T04:35:48;17.70;1.00
25328;DHT22;13279;51.300;12.394;2022-07-23T04:38:19;17.80;1.00
25328;DHT22;13279;51.300;12.394;2022-07-23T04:40:51;17.80;1.00
25328;DHT22;13279;51.300;12.394;2022-07-23T04:43:19;17.70;1.00
25328;DHT22;13279;51.300;12.394;2022-07-23T04:45:49;17.70;1.00
25328;DHT22;13279;51.300;12.394;2022-07-23T04:48:17;17.70;1.00
25328;DHT22;13279;51.300;12.394;2022-07-23T04:50:48;17.60;67.80
25328;DHT22;13279;51.300;12.394;2022-07-23T04:53:22;17.30;99.90
25328;DHT22;13279;51.300;12.394;2022-07-23T04:55:54;17.10;99.90
25328;DHT22;13279;51.300;12.394;2022-07-23T04:58:21;17.00;99.90
25328;DHT22;13279;51.300;12.394;2022-07-23T05:00:49;16.90;99.90
25328;DHT22;13279;51.300;12.394;2022-07-23T05:03:17;16.70;99.90
25328;DHT22;13279;51.300;12.394;2022-07-23T05:05:47;16.60;99.90
25328;DHT22;13279;51.300;12.394;2022-07-23T05:08:17;16.50;99.90
25328;DHT22;13279;51.300;12.394;2022-07-23T05:10:49;16.40;99.90
25328;DHT22;13279;51.300;12.394;2022-07-23T05:13:20;16.50;99.90
25328;DHT22;13279;51.300;12.394;2022-07-23T05:15:51;16.60;99.90
25328;DHT22;13279;51.300;12.394;2022-07-23T05:18:18;16.60;99.90
25328;DHT22;13279;51.300;12.394;2022-07-23T05:20:46;16.60;99.90
25328;DHT22;13279;51.300;12.394;2022-07-23T05:23:17;16.50;99.90
25328;DHT22;13279;51.300;12.394;2022-07-23T05:25:46;16.60;99.90
25328;DHT22;13279;51.300;12.394;2022-07-23T05:28:16;16.40;99.90
25328;DHT22;13279;51.300;12.394;2022-07-23T05:30:45;16.30;99.90
25328;DHT22;13279;51.300;12.394;2022-07-23T05:33:15;16.20;99.90
25328;DHT22;13279;51.300;12.394;2022-07-23T05:35:42;16.30;99.90
25328;DHT22;13279;51.300;12.394;2022-07-23T05:38:24;16.30;99.90
25328;DHT22;13279;51.300;12.394;2022-07-23T05:40:53;16.30;99.90
25328;DHT22;13279;51.300;12.394;2022-07-23T05:43:21;16.30;99.90
25328;DHT22;13279;51.300;12.394;2022-07-23T05:45:50;16.30;99.90
25328;DHT22;13279;51.300;12.394;2022-07-23T05:48:18;16.40;99.90
25328;DHT22;13279;51.300;12.394;2022-07-23T05:51:06;16.40;99.90
25328;DHT22;13279;51.300;12.394;2022-07-23T05:53:34;16.30;99.90
25328;DHT22;13279;51.300;12.394;2022-07-23T05:56:15;16.30;99.90
25328;DHT22;13279;51.300;12.394;2022-07-23T05:58:45;16.40;99.90
25328;DHT22;13279;51.300;12.394;2022-07-23T06:01:16;16.40;99.90
25328;DHT22;13279;51.300;12.394;2022-07-23T06:03:59;16.40;99.90
25328;DHT22;13279;51.300;12.394;2022-07-23T06:06:33;16.50;99.90
25328;DHT22;13279;51.300;12.394;2022-07-23T06:09:02;16.50;99.90
25328;DHT22;13279;51.300;12.394;2022-07-23T06:11:29;16.50;99.90
25328;DHT22;13279;51.300;12.394;2022-07-23T06:13:57;16.60;99.90
25328;DHT22;13279;51.300;12.394;2022-07-23T06:16:38;16.60;99.90
25328;DHT22;13279;51.300;12.394;2022-07-23T06:19:05;16.60;99.90
25328;DHT22;13279;51.300;12.394;2022-07-23T06:21:33;16.70;99.90
25328;DHT22;13279;51.300;12.394;2022-07-23T06:24:00;16.80;99.90
25328;DHT22;13279;51.300;12.394;2022-07-23T06:26:28;16.80;99.90
25328;DHT22;13279;51.300;12.394;2022-07-23T06:28:56;16.90;99.90
25328;DHT22;13279;51.300;12.394;2022-07-23T06:31:23;17.00;99.90
25328;DHT22;13279;51.300;12.394;2022-07-23T06:33:53;17.10;99.90
25328;DHT22;13279;51.300;12.394;2022-07-23T06:36:20;17.10;99.90
25328;DHT22;13279;51.300;12.394;2022-07-23T06:38:48;17.30;99.90
25328;DHT22;13279;51.300;12.394;2022-07-23T06:41:16;17.50;99.90
25328;DHT22;13279;51.300;12.394;2022-07-23T06:43:44;17.60;99.90
25328;DHT22;13279;51.300;12.394;2022-07-23T06:46:15;17.70;99.90
25328;DHT22;13279;51.300;12.394;2022-07-23T06:48:42;17.70;99.90
25328;DHT22;13279;51.300;12.394;2022-07-23T06:51:11;17.70;99.90
25328;DHT22;13279;51.300;12.394;2022-07-23T06:53:39;17.60;99.90
25328;DHT22;13279;51.300;12.394;2022-07-23T06:56:09;17.50;99.90
25328;DHT22;13279;51.300;12.394;2022-07-23T06:58:38;17.50;99.90
25328;DHT22;13279;51.300;12.394;2022-07-23T07:01:06;17.50;99.90
25328;DHT22;13279;51.300;12.394;2022-07-23T07:03:34;17.60;99.90
25328;DHT22;13279;51.300;12.394;2022-07-23T07:06:01;17.70;99.90
25328;DHT22;13279;51.300;12.394;2022-07-23T07:08:30;17.80;99.90
25328;DHT22;13279;51.300;12.394;2022-07-23T07:10:58;17.80;99.90
25328;DHT22;13279;51.300;12.394;2022-07-23T07:13:25;18.00;99.90
25328;DHT22;13279;51.300;12.394;2022-07-23T07:15:53;18.00;99.90
25328;DHT22;13279;51.300;12.394;2022-07-23T07:18:21;18.10;99.90
25328;DHT22;13279;51.300;12.394;2022-07-23T07:20:48;18.20;99.90
25328;DHT22;13279;51.300;12.394;2022-07-23T07:23:16;18.30;99.90
25328;DHT22;13279;51.300;12.394;2022-07-23T07:25:45;18.30;99.90
25328;DHT22;13279;51.300;12.394;2022-07-23T07:28:12;18.40;99.90
25328;DHT22;13279;51.300;12.394;2022-07-23T07:30:40;18.50;99.90
25328;DHT22;13279;51.300;12.394;2022-07-23T07:33:08;18.40;99.90
25328;DHT22;13279;51.300;12.394;2022-07-23T07:35:35;18.40;99.90
25328;DHT22;13279;51.300;12.394;2022-07-23T07:38:02;18.40;99.90
25328;DHT22;13279;51.300;12.394;2022-07-23T07:40:30;18.50;99.90
25328;DHT22;13279;51.300;12.394;2022-07-23T07:42:59;18.60;99.90
25328;DHT22;13279;51.300;12.394;2022-07-23T07:45:27;18.60;99.90
25328;DHT22;13279;51.300;12.394;2022-07-23T07:47:55;18.70;99.90
25328;DHT22;13279;51.300;12.394;2022-07-23T07:50:23;18.70;99.90
25328;DHT22;13279;51.300;12.394;2022-07-23T07:52:51;18.60;99.90
25328;DHT22;13279;51.300;12.394;2022-07-23T07:55:18;18.60;99.90
25328;DHT22;13279;51.300;12.394;2022-07-23T07:57:46;18.70;99.90
25328;DHT22;13279;51.300;12.394;2022-07-23T08:00:16;18.60;99.90
25328;DHT22;13279;51.300;12.394;2022-07-23T08:02:45;18.70;99.90
25328;DHT22;13279;51.300;12.394;2022-07-23T08:05:14;18.60;99.90
25328;DHT22;13279;51.300;12.394;2022-07-23T08:07:41;18.60;99.90
25328;DHT22;13279;51.300;12.394;2022-07-23T08:10:09;18.70;99.90
25328;DHT22;13279;51.300;12.394;2022-07-23T08:12:42;18.90;99.90
25328;DHT22;13279;51.300;12.394;2022-07-23T08:15:11;19.00;99.90
25328;DHT22;13279;51.300;12.394;2022-07-23T08:17:41;19.10;99.90
25328;DHT22;13279;51.300;12.394;2022-07-23T08:20:10;19.10;99.90
25328;DHT22;13279;51.300;12.394;2022-07-23T08:22:47;19.00;99.90
25328;DHT22;13279;51.300;12.394;2022-07-23T08:25:15;19.20;99.90
25328;DHT22;13279;51.300;12.394;2022-07-23T08:27:46;19.30;99.90
25328;DHT22;13279;51.300;12.394;2022-07-23T08:30:13;19.20;99.90
25328;DHT22;13279;51.300;12.394;2022-07-23T08:32:56;19.20;99.90
25328;DHT22;13279;51.300;12.394;2022-07-23T08:35:29;19.30;99.90
25328;DHT22;13279;51.300;12.394;2022-07-23T08:37:57;19.40;99.90
25328;DHT22;13279;51.300;12.394;2022-07-23T08:40:26;19.40;99.90
25328;DHT22;13279;51.300;12.394;2022-07-23T08:42:54;19.40;99.90
25328;DHT22;13279;51.300;12.394;2022-07-23T08:45:24;19.50;99.90
25328;DHT22;13279;51.300;12.394;2022-07-23T08:47:53;19.50;99.90
25328;DHT22;13279;51.300;12.394;2022-07-23T08:50:23;19.50;99.90
25328;DHT22;13279;51.300;12.394;2022-07-23T08:52:52;19.40;99.90
25328;DHT22;13279;51.300;12.394;2022-07-23T08:55:21;19.40;99.90
25328;DHT22;13279;51.300;12.394;2022-07-23T08:57:51;19.30;99.90
25328;DHT22;13279;51.300;12.394;2022-07-23T09:00:22;19.20;99.90
25328;DHT22;13279;51.300;12.394;2022-07-23T09:02:51;19.20;99.90
25328;DHT22;13279;51.300;12.394;2022-07-23T09:05:19;19.00;99.90
25328;DHT22;13279;51.300;12.394;2022-07-23T09:08:11;18.90;99.90
25328;DHT22;13279;51.300;12.394;2022-07-23T09:10:47;19.20;99.90
25328;DHT22;13279;51.300;12.394;2022-07-23T09:13:28;19.40;99.90
25328;DHT22;13279;51.300;12.394;2022-07-23T09:15:58;19.50;99.90
25328;DHT22;13279;51.300;12.394;2022-07-23T09:18:34;19.60;99.90
25328;DHT22;13279;51.300;12.394;2022-07-23T09:21:16;19.70;99.90
25328;DHT22;13279;51.300;12.394;2022-07-23T09:23:47;19.70;99.90
25328;DHT22;13279;51.300;12.394;2022-07-23T09:26:29;19.50;99.90
25328;DHT22;13279;51.300;12.394;2022-07-23T09:29:00;19.30;99.90
25328;DHT22;13279;51.300;12.394;2022-07-23T09:31:33;19.30;99.90
25328;DHT22;13279;51.300;12.394;2022-07-23T09:34:13;19.30;99.90
25328;DHT22;13279;51.300;12.394;2022-07-23T09:39:25;19.10;99.90
25328;DHT22;13279;51.300;12.394;2022-07-23T09:41:54;19.20;99.90
25328;DHT22;13279;51.300;12.394;2022-07-23T09:44:21;19.20;99.90
25328;DHT22;13279;51.300;12.394;2022-07-23T09:46:50;19.20;99.90
25328;DHT22;13279;51.300;12.394;2022-07-23T09:49:24;19.20;99.90
25328;DHT22;13279;51.300;12.394;2022-07-23T09:51:54;19.30;99.90
25328;DHT22;13279;51.300;12.394;2022-07-23T09:54:32;19.40;99.90
25328;DHT22;13279;51.300;12.394;2022-07-23T09:57:04;19.30;99.90
25328;DHT22;13279;51.300;12.394;2022-07-23T09:59:35;19.30;99.90
25328;DHT22;13279;51.300;12.394;2022-07-23T10:02:03;19.50;99.90
25328;DHT22;13279;51.300;12.394;2022-07-23T10:04:39;19.50;99.90
25328;DHT22;13279;51.300;12.394;2022-07-23T10:07:17;19.70;99.90
25328;DHT22;13279;51.300;12.394;2022-07-23T10:10:07;19.80;99.90
25328;DHT22;13279;51.300;12.394;2022-07-23T10:12:54;19.70;99.90
25328;DHT22;13279;51.300;12.394;2022-07-23T10:15:54;19.60;99.90
25328;DHT22;13279;51.300;12.394;2022-07-23T10:18:22;19.30;99.90
25328;DHT22;13279;51.300;12.394;2022-07-23T10:20:50;19.20;99.90
25328;DHT22;13279;51.300;12.394;2022-07-23T10:23:24;19.30;99.90
25328;DHT22;13279;51.300;12.394;2022-07-23T10:25:59;19.30;99.90
25328;DHT22;13279;51.300;12.394;2022-07-23T10:29:01;19.30;99.90
25328;DHT22;13279;51.300;12.394;2022-07-23T10:31:41;19.30;99.90
25328;DHT22;13279;51.300;12.394;2022-07-23T10:34:19;19.40;99.90
25328;DHT22;13279;51.300;12.394;2022-07-23T10:36:52;19.40;99.90
25328;DHT22;13279;51.300;12.394;2022-07-23T10:39:26;19.30;99.90
25328;DHT22;13279;51.300;12.394;2022-07-23T10:42:08;19.30;99.90
25328;DHT22;13279;51.300;12.394;2022-07-23T10:44:41;19.30;99.90
25328;DHT22;13279;51.300;12.394;2022-07-23T10:47:11;19.20;99.90
25328;DHT22;13279;51.300;12.394;2022-07-23T10:50:22;19.10;99.90
25328;DHT22;13279;51.300;12.394;2022-07-23T10:53:11;19.20;99.90
25328;DHT22;13279;51.300;12.394;2022-07-23T10:55:51;19.30;99.90
25328;DHT22;13279;51.300;12.394;2022-07-23T10:58:21;19.60;99.90
25328;DHT22;13279;51.300;12.394;2022-07-23T11:00:49;19.70;92.50
25328;DHT22;13279;51.300;12.394;2022-07-23T11:03:32;19.80;53.00
25328;DHT22;13279;51.300;12.394;2022-07-23T11:06:03;19.90;73.70
25328;DHT22;13279;51.300;12.394;2022-07-23T11:08:31;19.80;93.90
25328;DHT22;13279;51.300;12.394;2022-07-23T11:11:10;19.80;90.60
25328;DHT22;13279;51.300;12.394;2022-07-23T11:13:49;19.70;95.80
25328;DHT22;13279;51.300;12.394;2022-07-23T11:16:21;19.70;99.90
25328;DHT22;13279;51.300;12.394;2022-07-23T11:19:06;19.80;99.90
25328;DHT22;13279;51.300;12.394;2022-07-23T11:21:49;19.90;53.50
25328;DHT22;13279;51.300;12.394;2022-07-23T11:24:22;20.00;71.50
25328;DHT22;13279;51.300;12.394;2022-07-23T11:26:56;20.00;40.10
25328;DHT22;13279;51.300;12.394;2022-07-23T11:29:44;20.10;99.90
25328;DHT22;13279;51.300;12.394;2022-07-23T11:32:38;20.20;29.10
25328;DHT22;13279;51.300;12.394;2022-07-23T11:35:22;20.20;57.00
25328;DHT22;13279;51.300;12.394;2022-07-23T11:37:52;20.40;35.60
25328;DHT22;13279;51.300;12.394;2022-07-23T11:40:25;20.50;1.00
25328;DHT22;13279;51.300;12.394;2022-07-23T11:42:56;20.60;7.00
25328;DHT22;13279;51.300;12.394;2022-07-23T11:45:29;20.70;1.00
25328;DHT22;13279;51.300;12.394;2022-07-23T11:47:57;20.70;1.00
25328;DHT22;13279;51.300;12.394;2022-07-23T11:50:27;20.90;1.00
25328;DHT22;13279;51.300;12.394;2022-07-23T11:52:55;20.90;1.00
25328;DHT22;13279;51.300;12.394;2022-07-23T11:55:23;20.90;1.00
25328;DHT22;13279;51.300;12.394;2022-07-23T11:57:52;21.00;1.00
25328;DHT22;13279;51.300;12.394;2022-07-23T12:00:21;21.10;1.00
25328;DHT22;13279;51.300;12.394;2022-07-23T12:02:50;21.30;1.00
25328;DHT22;13279;51.300;12.394;2022-07-23T12:05:21;21.30;1.00
25328;DHT22;13279;51.300;12.394;2022-07-23T12:07:51;21.40;1.00
25328;DHT22;13279;51.300;12.394;2022-07-23T12:10:21;21.40;1.00
25328;DHT22;13279;51.300;12.394;2022-07-23T12:12:50;21.50;1.00
25328;DHT22;13279;51.300;12.394;2022-07-23T12:15:20;21.50;1.00
25328;DHT22;13279;51.300;12.394;2022-07-23T12:17:49;21.40;1.00
25328;DHT22;13279;51.300;12.394;2022-07-23T12:20:20;21.70;1.00
25328;DHT22;13279;51.300;12.394;2022-07-23T12:22:51;21.80;1.00
25328;DHT22;13279;51.300;12.394;2022-07-23T12:25:21;21.80;1.00
25328;DHT22;13279;51.300;12.394;2022-07-23T12:27:59;21.90;1.00
25328;DHT22;13279;51.300;12.394;2022-07-23T12:30:31;21.80;1.00
25328;DHT22;13279;51.300;12.394;2022-07-23T12:32:59;21.70;1.00
25328;DHT22;13279;51.300;12.394;2022-07-23T12:35:35;21.90;1.00
25328;DHT22;13279;51.300;12.394;2022-07-23T12:38:07;21.90;1.00
25328;DHT22;13279;51.300;12.394;2022-07-23T12:40:37;22.20;1.00
25328;DHT22;13279;51.300;12.394;2022-07-23T12:43:10;22.50;1.00
25328;DHT22;13279;51.300;12.394;2022-07-23T12:45:46;22.80;1.00
25328;DHT22;13279;51.300;12.394;2022-07-23T12:48:19;23.10;1.00
25328;DHT22;13279;51.300;12.394;2022-07-23T12:50:52;23.40;1.00
25328;DHT22;13279;51.300;12.394;2022-07-23T12:53:23;23.70;1.00
25328;DHT22;13279;51.300;12.394;2022-07-23T12:55:58;24.10;99.90
25328;DHT22;13279;51.300;12.394;2022-07-23T12:58:26;24.10;99.90
25328;DHT22;13279;51.300;12.394;2022-07-23T13:01:02;24.20;99.90
25328;DHT22;13279;51.300;12.394;2022-07-23T13:03:33;24.20;99.90
25328;DHT22;13279;51.300;12.394;2022-07-23T13:06:03;24.50;99.90
25328;DHT22;13279;51.300;12.394;2022-07-23T13:08:33;24.80;1.00
25328;DHT22;13279;51.300;12.394;2022-07-23T13:11:01;25.00;1.00
25328;DHT22;13279;51.300;12.394;2022-07-23T13:13:31;24.70;1.00
25328;DHT22;13279;51.300;12.394;2022-07-23T13:15:59;24.30;1.00
25328;DHT22;13279;51.300;12.394;2022-07-23T13:18:27;24.00;1.00
25328;DHT22;13279;51.300;12.394;2022-07-23T13:20:56;24.00;1.00
25328;DHT22;13279;51.300;12.394;2022-07-23T13:23:24;24.20;1.00
25328;DHT22;13279;51.300;12.394;2022-07-23T13:25:53;24.50;1.00
25328;DHT22;13279;51.300;12.394;2022-07-23T13:28:22;25.00;99.90
25328;DHT22;13279;51.300;12.394;2022-07-23T13:30:51;25.30;83.00
25328;DHT22;13279;51.300;12.394;2022-07-23T13:33:20;25.80;1.00
25328;DHT22;13279;51.300;12.394;2022-07-23T13:35:50;25.80;99.90
25328;DHT22;13279;51.300;12.394;2022-07-23T13:38:18;26.20;1.00
25328;DHT22;13279;51.300;12.394;2022-07-23T13:40:47;26.50;99.90
25328;DHT22;13279;51.300;12.394;2022-07-23T13:43:19;26.30;1.00
25328;DHT22;13279;51.300;12.394;2022-07-23T13:45:47;26.60;1.00
25328;DHT22;13279;51.300;12.394;2022-07-23T13:48:15;27.00;1.00
25328;DHT22;13279;51.300;12.394;2022-07-23T13:50:44;26.90;1.00
25328;DHT22;13279;51.300;12.394;2022-07-23T13:53:13;27.20;1.00
25328;DHT22;13279;51.300;12.394;2022-07-23T13:55:42;27.40;1.00
25328;DHT22;13279;51.300;12.394;2022-07-23T13:58:10;27.60;99.90
25328;DHT22;13279;51.300;12.394;2022-07-23T14:00:42;27.60;99.90
25328;DHT22;13279;51.300;12.394;2022-07-23T14:03:10;27.50;99.90
25328;DHT22;13279;51.300;12.394;2022-07-23T14:05:38;27.90;99.90
25328;DHT22;13279;51.300;12.394;2022-07-23T14:08:07;27.90;1.00
25328;DHT22;13279;51.300;12.394;2022-07-23T14:10:34;28.20;1.00
25328;DHT22;13279;51.300;12.394;2022-07-23T14:13:02;28.20;1.00
25328;DHT22;13279;51.300;12.394;2022-07-23T14:15:31;28.10;1.00
25328;DHT22;13279;51.300;12.394;2022-07-23T14:18:01;28.00;1.00
25328;DHT22;13279;51.300;12.394;2022-07-23T14:20:28;28.00;99.90
25328;DHT22;13279;51.300;12.394;2022-07-23T14:22:56;28.10;99.90
25328;DHT22;13279;51.300;12.394;2022-07-23T14:25:27;27.60;1.00
25328;DHT22;13279;51.300;12.394;2022-07-23T14:27:54;27.70;1.00
25328;DHT22;13279;51.300;12.394;2022-07-23T14:30:22;27.70;1.00
25328;DHT22;13279;51.300;12.394;2022-07-23T14:32:50;28.00;1.00
25328;DHT22;13279;51.300;12.394;2022-07-23T14:35:20;28.10;14.50
25328;DHT22;13279;51.300;12.394;2022-07-23T14:37:48;28.20;36.50
25328;DHT22;13279;51.300;12.394;2022-07-23T14:40:15;28.00;99.90
25328;DHT22;13279;51.300;12.394;2022-07-23T14:42:43;28.10;99.90
25328;DHT22;13279;51.300;12.394;2022-07-23T14:45:11;28.20;1.00
25328;DHT22;13279;51.300;12.394;2022-07-23T14:47:40;28.60;1.00
25328;DHT22;13279;51.300;12.394;2022-07-23T14:50:07;28.90;1.00
25328;DHT22;13279;51.300;12.394;2022-07-23T14:52:37;28.50;1.00
25328;DHT22;13279;51.300;12.394;2022-07-23T14:55:05;28.50;1.00
25328;DHT22;13279;51.300;12.394;2022-07-23T14:57:33;28.50;99.90
25328;DHT22;13279;51.300;12.394;2022-07-23T15:00:02;28.60;1.00
25328;DHT22;13279;51.300;12.394;2022-07-23T15:02:30;28.50;1.00
25328;DHT22;13279;51.300;12.394;2022-07-23T15:04:58;28.30;1.00
25328;DHT22;13279;51.300;12.394;2022-07-23T15:07:26;28.20;1.00
25328;DHT22;13279;51.300;12.394;2022-07-23T15:09:57;28.00;1.00
25328;DHT22;13279;51.300;12.394;2022-07-23T15:12:25;27.70;56.50
25328;DHT22;13279;51.300;12.394;2022-07-23T15:14:52;27.30;99.90
25328;DHT22;13279;51.300;12.394;2022-07-23T15:17:20;27.10;1.00
25328;DHT22;13279;51.300;12.394;2022-07-23T15:19:47;27.20;1.00
25328;DHT22;13279;51.300;12.394;2022-07-23T15:22:15;27.20;1.00
25328;DHT22;13279;51.300;12.394;2022-07-23T15:24:43;27.50;1.00
25328;DHT22;13279;51.300;12.394;2022-07-23T15:27:12;27.30;99.90
25328;DHT22;13279;51.300;12.394;2022-07-23T15:29:40;27.20;1.00
25328;DHT22;13279;51.300;12.394;2022-07-23T15:32:07;27.30;1.00
25328;DHT22;13279;51.300;12.394;2022-07-23T15:34:36;27.40;1.00
25328;DHT22;13279;51.300;12.394;2022-07-23T15:37:04;27.90;99.90
25328;DHT22;13279;51.300;12.394;2022-07-23T15:39:32;27.90;20.00
25328;DHT22;13279;51.300;12.394;2022-07-23T15:42:01;28.10;99.90
25328;DHT22;13279;51.300;12.394;2022-07-23T15:44:30;27.60;99.90
25328;DHT22;13279;51.300;12.394;2022-07-23T15:46:58;27.80;1.00
25328;DHT22;13279;51.300;12.394;2022-07-23T15:49:26;27.90;99.90
25328;DHT22;13279;51.300;12.394;2022-07-23T15:51:54;28.00;99.90
25328;DHT22;13279;51.300;12.394;2022-07-23T15:54:22;27.50;99.90
25328;DHT22;13279;51.300;12.394;2022-07-23T15:56:50;26.90;19.30
25328;DHT22;13279;51.300;12.394;2022-07-23T15:59:18;26.40;1.00
25328;DHT22;13279;51.300;12.394;2022-07-23T16:01:47;26.30;1.00
25328;DHT22;13279;51.300;12.394;2022-07-23T16:04:15;26.40;99.90
25328;DHT22;13279;51.300;12.394;2022-07-23T16:06:42;26.50;1.00
25328;DHT22;13279;51.300;12.394;2022-07-23T16:09:10;26.60;1.00
25328;DHT22;13279;51.300;12.394;2022-07-23T16:11:37;26.40;1.00
25328;DHT22;13279;51.300;12.394;2022-07-23T16:14:05;26.10;99.90
25328;DHT22;13279;51.300;12.394;2022-07-23T16:16:33;26.00;99.90
25328;DHT22;13279;51.300;12.394;2022-07-23T16:19:02;25.70;1.00
25328;DHT22;13279;51.300;12.394;2022-07-23T16:21:30;25.60;1.00
25328;DHT22;13279;51.300;12.394;2022-07-23T16:23:57;25.50;99.90
25328;DHT22;13279;51.300;12.394;2022-07-23T16:26:24;25.40;1.00
25328;DHT22;13279;51.300;12.394;2022-07-23T16:28:52;25.30;99.90
25328;DHT22;13279;51.300;12.394;2022-07-23T16:31:19;25.30;1.00
25328;DHT22;13279;51.300;12.394;2022-07-23T16:33:47;25.40;99.90
25328;DHT22;13279;51.300;12.394;2022-07-23T16:36:16;25.50;1.00
25328;DHT22;13279;51.300;12.394;2022-07-23T16:38:45;25.60;99.90
25328;DHT22;13279;51.300;12.394;2022-07-23T16:41:12;25.60;1.00
25328;DHT22;13279;51.300;12.394;2022-07-23T16:43:40;25.40;99.90
25328;DHT22;13279;51.300;12.394;2022-07-23T16:46:07;25.30;99.90
25328;DHT22;13279;51.300;12.394;2022-07-23T16:48:35;25.40;99.90
25328;DHT22;13279;51.300;12.394;2022-07-23T16:51:04;25.40;1.00
25328;DHT22;13279;51.300;12.394;2022-07-23T16:53:33;25.30;99.90
25328;DHT22;13279;51.300;12.394;2022-07-23T16:56:01;25.20;1.00
25328;DHT22;13279;51.300;12.394;2022-07-23T16:58:29;25.20;99.90
25328;DHT22;13279;51.300;12.394;2022-07-23T17:00:56;25.10;99.90
25328;DHT22;13279;51.300;12.394;2022-07-23T17:03:24;25.20;99.90
25328;DHT22;13279;51.300;12.394;2022-07-23T17:05:55;25.10;99.90
25328;DHT22;13279;51.300;12.394;2022-07-23T17:08:22;25.00;99.90
25328;DHT22;13279;51.300;12.394;2022-07-23T17:10:52;25.00;99.90
25328;DHT22;13279;51.300;12.394;2022-07-23T17:13:19;24.90;99.90
25328;DHT22;13279;51.300;12.394;2022-07-23T17:15:46;24.70;1.00
25328;DHT22;13279;51.300;12.394;2022-07-23T17:18:14;24.60;1.00
25328;DHT22;13279;51.300;12.394;2022-07-23T17:20:42;24.60;66.30
25328;DHT22;13279;51.300;12.394;2022-07-23T17:23:09;24.60;1.00
25328;DHT22;13279;51.300;12.394;2022-07-23T17:25:37;24.60;1.00
25328;DHT22;13279;51.300;12.394;2022-07-23T17:28:07;24.70;1.00
25328;DHT22;13279;51.300;12.394;2022-07-23T17:30:35;24.60;1.00
25328;DHT22;13279;51.300;12.394;2022-07-23T17:33:02;24.60;1.00
25328;DHT22;13279;51.300;12.394;2022-07-23T17:35:29;24.50;99.90
25328;DHT22;13279;51.300;12.394;2022-07-23T17:37:57;24.50;99.90
25328;DHT22;13279;51.300;12.394;2022-07-23T17:40:24;24.50;99.90
25328;DHT22;13279;51.300;12.394;2022-07-23T17:42:52;24.50;1.00
25328;DHT22;13279;51.300;12.394;2022-07-23T17:45:21;24.50;1.00
25328;DHT22;13279;51.300;12.394;2022-07-23T17:47:49;24.50;1.00
25328;DHT22;13279;51.300;12.394;2022-07-23T17:50:17;24.50;1.00
25328;DHT22;13279;51.300;12.394;2022-07-23T17:52:48;24.50;1.00
25328;DHT22;13279;51.300;12.394;2022-07-23T17:55:16;24.40;1.00
25328;DHT22;13279;51.300;12.394;2022-07-23T17:57:44;24.40;1.00
25328;DHT22;13279;51.300;12.394;2022-07-23T18:00:14;24.40;1.00
25328;DHT22;13279;51.300;12.394;2022-07-23T18:02:43;24.40;1.00
25328;DHT22;13279;51.300;12.394;2022-07-23T18:05:10;24.30;1.00
25328;DHT22;13279;51.300;12.394;2022-07-23T18:07:38;24.30;1.00
25328;DHT22;13279;51.300;12.394;2022-07-23T18:10:06;24.20;1.00
25328;DHT22;13279;51.300;12.394;2022-07-23T18:12:34;24.20;1.00
25328;DHT22;13279;51.300;12.394;2022-07-23T18:15:03;24.10;1.00
25328;DHT22;13279;51.300;12.394;2022-07-23T18:17:30;24.00;1.00
25328;DHT22;13279;51.300;12.394;2022-07-23T18:19:59;24.00;1.00
25328;DHT22;13279;51.300;12.394;2022-07-23T18:22:27;24.00;1.00
25328;DHT22;13279;51.300;12.394;2022-07-23T18:24:55;23.90;1.00
25328;DHT22;13279;51.300;12.394;2022-07-23T18:27:22;23.90;1.00
25328;DHT22;13279;51.300;12.394;2022-07-23T18:29:50;23.80;1.00
25328;DHT22;13279;51.300;12.394;2022-07-23T18:32:18;23.80;1.00
25328;DHT22;13279;51.300;12.394;2022-07-23T18:34:46;23.80;1.00
25328;DHT22;13279;51.300;12.394;2022-07-23T18:37:15;23.70;99.90
25328;DHT22;13279;51.300;12.394;2022-07-23T18:39:44;23.70;1.00
25328;DHT22;13279;51.300;12.394;2022-07-23T18:42:11;23.60;1.00
25328;DHT22;13279;51.300;12.394;2022-07-23T18:44:39;23.50;1.00
25328;DHT22;13279;51.300;12.394;2022-07-23T18:47:06;23.50;1.00
25328;DHT22;13279;51.300;12.394;2022-07-23T18:49:36;23.40;1.00
25328;DHT22;13279;51.300;12.394;2022-07-23T18:52:04;23.30;99.90
25328;DHT22;13279;51.300;12.394;2022-07-23T18:54:33;23.20;89.00
25328;DHT22;13279;51.300;12.394;2022-07-23T18:57:01;23.20;99.90
25328;DHT22;13279;51.300;12.394;2022-07-23T18:59:28;23.20;1.00